createdAt,value
2022-08-08T00:00:53.209Z,100993.00
2022-08-08T00:03:01.621Z,100993.00
2022-08-08T00:06:15.981Z,100994.00
2022-08-08T00:09:27.623Z,100989.00
2022-08-08T00:12:13.667Z,100993.00
2022-08-08T00:15:05.277Z,100993.00
2022-08-08T00:17:58.570Z,100989.00
2022-08-08T00:20:42.344Z,100986.00
2022-08-08T00:23:28.501Z,100986.00
2022-08-08T00:26:26.235Z,100987.00
2022-08-08T00:29:10.064Z,100989.00
2022-08-08T00:32:19.949Z,100990.00
2022-08-08T00:35:16.696Z,100989.00
2022-08-08T00:38:02.470Z,100993.00
2022-08-08T00:41:11.652Z,100992.00
2022-08-08T00:43:55.966Z,100997.00
2022-08-08T00:46:57.189Z,100998.00
2022-08-08T00:49:33.231Z,101000.00
2022-08-08T00:52:30.256Z,101006.00
2022-08-08T00:55:17.524Z,100993.00
2022-08-08T00:58:36.479Z,100998.00
2022-08-08T01:01:37.706Z,100992.00
2022-08-08T01:04:50.690Z,100995.00
2022-08-08T01:07:55.652Z,100990.00
2022-08-08T01:10:50.991Z,100985.00
2022-08-08T01:13:43.311Z,100986.00
2022-08-08T01:16:39.103Z,100989.00
2022-08-08T01:19:52.266Z,100985.00
2022-08-08T01:22:45.405Z,100986.00
2022-08-08T01:25:49.208Z,100990.00
2022-08-08T01:28:47.687Z,100986.00
2022-08-08T01:32:13.588Z,100987.00
2022-08-08T01:35:29.628Z,100994.00
2022-08-08T01:38:13.036Z,100989.00
2022-08-08T01:41:11.687Z,100986.00
2022-08-08T01:43:54.455Z,100990.00
2022-08-08T01:46:52.112Z,100985.00
2022-08-08T01:49:53.985Z,100987.00
2022-08-08T01:55:17.848Z,100991.00
2022-08-08T01:56:29.442Z,100979.00
2022-08-08T01:59:08.988Z,100996.00
2022-08-08T02:01:59.694Z,100987.00
2022-08-08T02:04:59.234Z,100985.00
2022-08-08T02:08:06.983Z,100982.00
2022-08-08T02:10:55.150Z,100983.00
2022-08-08T02:13:54.623Z,100982.00
2022-08-08T02:16:29.315Z,100985.00
2022-08-08T02:19:41.527Z,100979.00
2022-08-08T02:22:34.232Z,100992.00
2022-08-08T02:25:46.781Z,100983.00
2022-08-08T02:28:43.122Z,100988.00
2022-08-08T02:31:58.113Z,100990.00
2022-08-08T02:35:07.661Z,100986.00
2022-08-08T02:37:56.706Z,100983.00
2022-08-08T02:40:54.759Z,100982.00
2022-08-08T02:44:42.817Z,100983.00
2022-08-08T02:47:32.833Z,100983.00
2022-08-08T02:50:52.888Z,100985.00
2022-08-08T02:53:56.803Z,100990.00
2022-08-08T02:57:02.702Z,100986.00
2022-08-08T03:00:26.660Z,100992.00
2022-08-08T03:03:46.302Z,100997.00
2022-08-08T03:06:44.717Z,100999.00
2022-08-08T03:09:41.332Z,100999.00
2022-08-08T03:12:35.878Z,100999.00
2022-08-08T03:16:00.907Z,101003.00
2022-08-08T03:18:30.984Z,101000.00
2022-08-08T03:21:01.780Z,100998.00
2022-08-08T03:23:54.746Z,101003.00
2022-08-08T03:26:42.116Z,101000.00
2022-08-08T03:29:27.119Z,101001.00
2022-08-08T03:32:29.242Z,101002.00
2022-08-08T03:34:59.304Z,101003.00
2022-08-08T03:37:59.386Z,101006.00
2022-08-08T03:40:29.417Z,101013.00
2022-08-08T03:43:16.770Z,101022.00
2022-08-08T03:46:07.064Z,101011.00
2022-08-08T03:49:09.940Z,101013.00
2022-08-08T03:51:47.086Z,101014.00
2022-08-08T03:54:40.711Z,101017.00
2022-08-08T03:58:35.256Z,101023.00
2022-08-08T04:00:18.222Z,101031.00
2022-08-08T04:03:11.804Z,101031.00
2022-08-08T04:05:48.134Z,101032.00
2022-08-08T04:08:33.798Z,101033.00
2022-08-08T04:11:17.478Z,101036.00
2022-08-08T04:14:03.153Z,101040.00
2022-08-08T04:16:40.928Z,101036.00
2022-08-08T04:19:24.949Z,101034.00
2022-08-08T04:21:59.338Z,101028.00
2022-08-08T04:24:32.922Z,101035.00
2022-08-08T04:27:05.147Z,101030.00
2022-08-08T04:29:38.925Z,101032.00
2022-08-08T04:32:30.317Z,101052.00
2022-08-08T04:34:59.823Z,101040.00
2022-08-08T04:37:34.391Z,101046.00
2022-08-08T04:40:13.045Z,101042.00
2022-08-08T04:42:56.679Z,101046.00
2022-08-08T04:45:51.797Z,101042.00
2022-08-08T04:48:21.771Z,101038.00
2022-08-08T04:50:50.504Z,101043.00
2022-08-08T04:54:27.412Z,101048.00
2022-08-08T04:56:13.547Z,101058.00
2022-08-08T04:58:41.773Z,101059.00
2022-08-08T05:01:11.507Z,101055.00
2022-08-08T05:04:10.001Z,101061.00
2022-08-08T05:06:36.414Z,101059.00
2022-08-08T05:09:08.178Z,101052.00
2022-08-08T05:11:40.583Z,101059.00
2022-08-08T05:14:14.148Z,101063.00
2022-08-08T05:16:52.551Z,101055.00
2022-08-08T05:20:10.795Z,101055.00
2022-08-08T05:22:19.008Z,101051.00
2022-08-08T05:24:50.270Z,101057.00
2022-08-08T05:27:22.013Z,101058.00
2022-08-08T05:29:53.391Z,101063.00
2022-08-08T05:32:27.727Z,101057.00
2022-08-08T05:35:01.640Z,101061.00
2022-08-08T05:37:51.910Z,101058.00
2022-08-08T05:40:28.157Z,101062.00
2022-08-08T05:43:38.432Z,101062.00
2022-08-08T05:46:03.983Z,101057.00
2022-08-08T05:48:38.863Z,101069.00
2022-08-08T05:51:15.704Z,101057.00
2022-08-08T05:54:24.857Z,101070.00
2022-08-08T05:56:47.609Z,101066.00
2022-08-08T05:59:59.683Z,101067.00
2022-08-08T06:02:47.935Z,101060.00
2022-08-08T06:05:32.910Z,101064.00
2022-08-08T06:08:09.566Z,101064.00
2022-08-08T06:10:50.678Z,101070.00
2022-08-08T06:13:22.810Z,101069.00
2022-08-08T06:15:55.625Z,101069.00
2022-08-08T06:18:30.469Z,101065.00
2022-08-08T06:21:03.696Z,101073.00
2022-08-08T06:23:52.854Z,101074.00
2022-08-08T06:26:44.461Z,101072.00
2022-08-08T06:29:48.653Z,101078.00
2022-08-08T06:32:15.021Z,101080.00
2022-08-08T06:34:56.443Z,101086.00
2022-08-08T06:37:46.573Z,101082.00
2022-08-08T06:40:20.978Z,101084.00
2022-08-08T06:42:56.196Z,101085.00
2022-08-08T06:45:34.020Z,101093.00
2022-08-08T06:48:04.197Z,101087.00
2022-08-08T06:50:38.513Z,101096.00
2022-08-08T06:53:17.154Z,101100.00
2022-08-08T06:56:02.071Z,101093.00
2022-08-08T06:58:33.497Z,101089.00
2022-08-08T07:02:11.690Z,101090.00
2022-08-08T07:04:37.098Z,101090.00
2022-08-08T07:07:10.694Z,101096.00
2022-08-08T07:09:59.427Z,101094.00
2022-08-08T07:12:47.570Z,101100.00
2022-08-08T07:16:05.400Z,101103.00
2022-08-08T07:19:06.653Z,101105.00
2022-08-08T07:22:12.156Z,101111.00
2022-08-08T07:25:01.928Z,101099.00
2022-08-08T07:28:00.685Z,101109.00
2022-08-08T07:30:32.980Z,101109.00
2022-08-08T07:33:02.599Z,101104.00
2022-08-08T07:35:35.584Z,101110.00
2022-08-08T07:38:18.355Z,101110.00
2022-08-08T07:41:04.468Z,101116.00
2022-08-08T07:43:37.008Z,101109.00
2022-08-08T07:46:23.175Z,101108.00
2022-08-08T07:48:56.109Z,101108.00
2022-08-08T07:51:44.931Z,101121.00
2022-08-08T07:54:33.777Z,101120.00
2022-08-08T07:57:27.778Z,101114.00
2022-08-08T08:00:15.783Z,101120.00
2022-08-08T08:03:20.511Z,101122.00
2022-08-08T08:05:54.808Z,101123.00
2022-08-08T08:08:41.824Z,101115.00
2022-08-08T08:11:23.647Z,101124.00
2022-08-08T08:14:09.871Z,101122.00
2022-08-08T08:16:50.484Z,101128.00
2022-08-08T08:19:25.867Z,101122.00
2022-08-08T08:22:01.081Z,101120.00
2022-08-08T08:24:43.077Z,101127.00
2022-08-08T08:27:14.987Z,101115.00
2022-08-08T08:29:51.057Z,101125.00
2022-08-08T08:32:32.058Z,101131.00
2022-08-08T08:35:07.667Z,101130.00
2022-08-08T08:37:59.424Z,101131.00
2022-08-08T08:40:27.101Z,101130.00
2022-08-08T08:42:57.638Z,101133.00
2022-08-08T08:45:29.259Z,101128.00
2022-08-08T08:48:01.886Z,101126.00
2022-08-08T08:50:36.885Z,101129.00
2022-08-08T08:53:27.190Z,101128.00
2022-08-08T08:56:09.112Z,101120.00
2022-08-08T08:58:46.863Z,101115.00
2022-08-08T09:01:43.823Z,101115.00
2022-08-08T09:04:31.626Z,101120.00
2022-08-08T09:07:20.191Z,101117.00
2022-08-08T09:09:57.273Z,101114.00
2022-08-08T09:12:40.514Z,101122.00
2022-08-08T09:15:14.943Z,101124.00
2022-08-08T09:18:26.596Z,101126.00
2022-08-08T09:21:56.138Z,101113.00
2022-08-08T09:24:00.766Z,101117.00
2022-08-08T09:26:40.827Z,101121.00
2022-08-08T09:29:24.556Z,101117.00
2022-08-08T09:32:04.478Z,101119.00
2022-08-08T09:34:50.513Z,101117.00
2022-08-08T09:37:58.053Z,101115.00
2022-08-08T09:40:18.794Z,101111.00
2022-08-08T09:42:52.094Z,101113.00
2022-08-08T09:45:54.596Z,101110.00
2022-08-08T09:48:36.496Z,101106.00
2022-08-08T09:51:13.267Z,101108.00
2022-08-08T09:53:56.490Z,101107.00
2022-08-08T09:56:40.086Z,101109.00
2022-08-08T09:59:42.738Z,101106.00
2022-08-08T10:02:12.865Z,101104.00
2022-08-08T10:04:47.844Z,101100.00
2022-08-08T10:07:17.570Z,101102.00
2022-08-08T10:09:58.875Z,101091.00
2022-08-08T10:12:53.652Z,101103.00
2022-08-08T10:15:29.462Z,101091.00
2022-08-08T10:18:11.717Z,101102.00
2022-08-08T10:20:58.113Z,101102.00
2022-08-08T10:23:58.315Z,101103.00
2022-08-08T10:26:56.895Z,101101.00
2022-08-08T10:30:01.624Z,101093.00
2022-08-08T10:32:34.393Z,101096.00
2022-08-08T10:35:11.519Z,101102.00
2022-08-08T10:37:59.851Z,101096.00
2022-08-08T10:40:32.234Z,101095.00
2022-08-08T10:43:05.991Z,101096.00
2022-08-08T10:45:56.619Z,101084.00
2022-08-08T10:48:57.496Z,101087.00
2022-08-08T10:51:26.560Z,101093.00
2022-08-08T10:54:02.031Z,101085.00
2022-08-08T10:56:35.468Z,101086.00
2022-08-08T10:59:14.046Z,101082.00
2022-08-08T11:01:49.556Z,101081.00
2022-08-08T11:04:39.018Z,101082.00
2022-08-08T11:07:39.158Z,101085.00
2022-08-08T11:10:01.165Z,101082.00
2022-08-08T11:12:38.321Z,101078.00
2022-08-08T11:15:07.914Z,101070.00
2022-08-08T11:18:00.999Z,101076.00
2022-08-08T11:20:28.432Z,101074.00
2022-08-08T11:23:05.687Z,101070.00
2022-08-08T11:25:52.149Z,101065.00
2022-08-08T11:28:29.440Z,101064.00
2022-08-08T11:31:03.870Z,101065.00
2022-08-08T11:33:51.403Z,101071.00
2022-08-08T11:36:22.358Z,101067.00
2022-08-08T11:38:54.878Z,101068.00
2022-08-08T11:41:32.553Z,101069.00
2022-08-08T11:44:02.472Z,101064.00
2022-08-08T11:46:34.946Z,101064.00
2022-08-08T11:49:05.302Z,101062.00
2022-08-08T11:51:40.193Z,101058.00
2022-08-08T11:54:32.476Z,101058.00
2022-08-08T11:57:35.159Z,101052.00
2022-08-08T12:00:07.616Z,101059.00
2022-08-08T12:02:58.632Z,101064.00
2022-08-08T12:05:34.037Z,101055.00
2022-08-08T12:08:02.241Z,101065.00
2022-08-08T12:10:33.858Z,101061.00
2022-08-08T12:13:10.702Z,101058.00
2022-08-08T12:15:46.784Z,101052.00
2022-08-08T12:18:25.017Z,101052.00
2022-08-08T12:20:55.308Z,101049.00
2022-08-08T12:23:43.635Z,101045.00
2022-08-08T12:26:27.510Z,101044.00
2022-08-08T12:29:17.390Z,101037.00
2022-08-08T12:31:53.486Z,101041.00
2022-08-08T12:34:36.456Z,101043.00
2022-08-08T12:37:14.823Z,101044.00
2022-08-08T12:40:02.081Z,101046.00
2022-08-08T12:42:33.957Z,101042.00
2022-08-08T12:45:53.945Z,101051.00
2022-08-08T12:48:18.273Z,101047.00
2022-08-08T12:50:58.256Z,101054.00
2022-08-08T12:53:37.713Z,101046.00
2022-08-08T12:56:19.869Z,101037.00
2022-08-08T12:58:54.052Z,101037.00
2022-08-08T13:01:42.954Z,101044.00
2022-08-08T13:04:18.745Z,101041.00
2022-08-08T13:07:00.579Z,101037.00
2022-08-08T13:09:43.286Z,101042.00
2022-08-08T13:12:34.250Z,101038.00
2022-08-08T13:15:06.412Z,101039.00
2022-08-08T13:18:01.449Z,101035.00
2022-08-08T13:20:26.039Z,101033.00
2022-08-08T13:23:29.868Z,101030.00
2022-08-08T13:25:50.362Z,101032.00
2022-08-08T13:28:31.938Z,101032.00
2022-08-08T13:31:06.074Z,101033.00
2022-08-08T13:33:42.274Z,101021.00
2022-08-08T13:36:11.293Z,101026.00
2022-08-08T13:38:40.895Z,101026.00
2022-08-08T13:41:16.085Z,101029.00
2022-08-08T13:43:49.824Z,101033.00
2022-08-08T13:46:27.098Z,101030.00
2022-08-08T13:50:33.972Z,101025.00
2022-08-08T13:52:06.010Z,101028.00
2022-08-08T13:54:44.266Z,101023.00
2022-08-08T13:57:14.705Z,101027.00
2022-08-08T13:59:49.574Z,101024.00
2022-08-08T14:02:32.884Z,101031.00
2022-08-08T14:05:04.972Z,101029.00
2022-08-08T14:07:42.305Z,101030.00
2022-08-08T14:10:17.396Z,101034.00
2022-08-08T14:13:00.511Z,101033.00
2022-08-08T14:15:39.762Z,101027.00
2022-08-08T14:18:36.841Z,101029.00
2022-08-08T14:21:12.904Z,101026.00
2022-08-08T14:24:03.987Z,101027.00
2022-08-08T14:26:33.589Z,101024.00
2022-08-08T14:29:06.128Z,101025.00
2022-08-08T14:32:10.033Z,101023.00
2022-08-08T14:34:42.484Z,101026.00
2022-08-08T14:37:13.291Z,101020.00
2022-08-08T14:40:06.628Z,101023.00
2022-08-08T14:42:54.519Z,101015.00
2022-08-08T14:45:33.316Z,101023.00
2022-08-08T14:48:17.600Z,101021.00
2022-08-08T14:51:06.767Z,101022.00
2022-08-08T14:53:54.999Z,101019.00
2022-08-08T14:56:25.936Z,101023.00
2022-08-08T14:58:55.059Z,101025.00
2022-08-08T15:01:37.561Z,101015.00
2022-08-08T15:04:10.300Z,101015.00
2022-08-08T15:06:39.052Z,101013.00
2022-08-08T15:09:10.320Z,101010.00
2022-08-08T15:11:43.376Z,101012.00
2022-08-08T15:14:15.487Z,101014.00
2022-08-08T15:16:44.304Z,101012.00
2022-08-08T15:19:14.934Z,101017.00
2022-08-08T15:21:44.895Z,101017.00
2022-08-08T15:24:16.014Z,101012.00
2022-08-08T15:26:52.522Z,101013.00
2022-08-08T15:29:24.174Z,101009.00
2022-08-08T15:32:03.903Z,101003.00
2022-08-08T15:34:44.758Z,101007.00
2022-08-08T15:37:13.253Z,101018.00
2022-08-08T15:39:41.425Z,101018.00
2022-08-08T15:42:17.722Z,101011.00
2022-08-08T15:44:58.539Z,101012.00
2022-08-08T15:47:26.577Z,101017.00
2022-08-08T15:49:54.902Z,101018.00
2022-08-08T15:52:27.749Z,101013.00
2022-08-08T15:54:55.572Z,101015.00
2022-08-08T15:57:26.290Z,101016.00
2022-08-08T16:00:25.446Z,101006.00
2022-08-08T16:02:43.897Z,101012.00
2022-08-08T16:05:20.004Z,101011.00
2022-08-08T16:07:52.668Z,101013.00
2022-08-08T16:13:09.625Z,101011.00
2022-08-08T16:13:43.771Z,101013.00
2022-08-08T16:16:09.457Z,101014.00
2022-08-08T16:18:57.163Z,101014.00
2022-08-08T16:21:29.175Z,101013.00
2022-08-08T16:23:58.339Z,101014.00
2022-08-08T16:26:32.794Z,101005.00
2022-08-08T16:29:07.945Z,101002.00
2022-08-08T16:31:37.702Z,101014.00
2022-08-08T16:34:06.169Z,101011.00
2022-08-08T16:36:34.438Z,101009.00
2022-08-08T16:39:09.786Z,101011.00
2022-08-08T16:41:51.134Z,101011.00
2022-08-08T16:44:28.168Z,101014.00
2022-08-08T16:47:21.625Z,101017.00
2022-08-08T16:49:50.070Z,101014.00
2022-08-08T16:55:01.635Z,101011.00
2022-08-08T16:55:25.042Z,101018.00
2022-08-08T16:58:15.873Z,101019.00
2022-08-08T17:00:45.383Z,101013.00
2022-08-08T17:03:18.149Z,101016.00
2022-08-08T17:05:53.916Z,101017.00
2022-08-08T17:08:23.671Z,101011.00
2022-08-08T17:10:57.608Z,101010.00
2022-08-08T17:13:41.441Z,101010.00
2022-08-08T17:16:16.368Z,101016.00
2022-08-08T17:18:45.692Z,101014.00
2022-08-08T17:21:13.928Z,101013.00
2022-08-08T17:24:01.654Z,101022.00
2022-08-08T17:26:31.497Z,101016.00
2022-08-08T17:29:04.229Z,101024.00
2022-08-08T17:31:44.643Z,101025.00
2022-08-08T17:34:48.865Z,101042.00
2022-08-08T17:37:09.288Z,101031.00
2022-08-08T17:40:04.162Z,101030.00
2022-08-08T17:42:29.149Z,101037.00
2022-08-08T17:44:58.589Z,101038.00
2022-08-08T17:47:40.480Z,101034.00
2022-08-08T17:50:09.567Z,101043.00
2022-08-08T17:52:38.476Z,101046.00
2022-08-08T17:56:05.149Z,101046.00
2022-08-08T17:58:00.142Z,101050.00
2022-08-08T18:00:31.089Z,101048.00
2022-08-08T18:03:07.782Z,101057.00
2022-08-08T18:05:49.410Z,101053.00
2022-08-08T18:08:25.169Z,101059.00
2022-08-08T18:11:16.162Z,101063.00
2022-08-08T18:13:46.054Z,101062.00
2022-08-08T18:16:20.644Z,101066.00
2022-08-08T18:18:55.934Z,101073.00
2022-08-08T18:22:00.262Z,101077.00
2022-08-08T18:24:21.398Z,101085.00
2022-08-08T18:26:53.986Z,101085.00
2022-08-08T18:29:29.734Z,101091.00
2022-08-08T18:31:59.226Z,101087.00
2022-08-08T18:34:28.096Z,101083.00
2022-08-08T18:36:56.709Z,101092.00
2022-08-08T18:39:28.716Z,101108.00
2022-08-08T18:42:03.570Z,101100.00
2022-08-08T18:44:34.713Z,101107.00
2022-08-08T18:47:04.389Z,101113.00
2022-08-08T18:49:57.262Z,101114.00
2022-08-08T18:52:23.313Z,101121.00
2022-08-08T18:55:00.558Z,101126.00
2022-08-08T18:57:44.666Z,101121.00
2022-08-08T19:00:20.278Z,101120.00
2022-08-08T19:02:56.616Z,101129.00
2022-08-08T19:05:38.554Z,101133.00
2022-08-08T19:08:24.944Z,101137.00
2022-08-08T19:10:58.589Z,101142.00
2022-08-08T19:13:47.283Z,101146.00
2022-08-08T19:16:18.563Z,101148.00
2022-08-08T19:18:53.367Z,101152.00
2022-08-08T19:21:32.883Z,101153.00
2022-08-08T19:24:05.435Z,101157.00
2022-08-08T19:26:35.671Z,101153.00
2022-08-08T19:29:06.083Z,101163.00
2022-08-08T19:31:35.286Z,101163.00
2022-08-08T19:34:36.407Z,101165.00
2022-08-08T19:36:58.451Z,101175.00
2022-08-08T19:39:35.163Z,101175.00
2022-08-08T19:42:07.241Z,101176.00
2022-08-08T19:44:46.443Z,101181.00
2022-08-08T19:47:24.468Z,101182.00
2022-08-08T19:49:59.890Z,101182.00
2022-08-08T19:52:34.838Z,101183.00
2022-08-08T19:55:12.677Z,101190.00
2022-08-08T19:57:42.361Z,101195.00
2022-08-08T20:00:30.595Z,101197.00
2022-08-08T20:03:01.266Z,101192.00
2022-08-08T20:06:14.118Z,101196.00
2022-08-08T20:08:29.591Z,101196.00
2022-08-08T20:11:00.555Z,101199.00
2022-08-08T20:14:11.968Z,101203.00
2022-08-08T20:16:18.392Z,101205.00
2022-08-08T20:18:52.927Z,101200.00
2022-08-08T20:21:25.916Z,101200.00
2022-08-08T20:23:58.340Z,101205.00
2022-08-08T20:26:33.657Z,101211.00
2022-08-08T20:29:04.047Z,101213.00
2022-08-08T20:31:47.001Z,101203.00
2022-08-08T20:34:30.281Z,101206.00
2022-08-08T20:37:04.064Z,101214.00
2022-08-08T20:39:41.285Z,101213.00
2022-08-08T20:42:28.291Z,101211.00
2022-08-08T20:44:58.830Z,101213.00
2022-08-08T20:47:36.215Z,101211.00
2022-08-08T20:50:10.813Z,101219.00
2022-08-08T20:52:39.230Z,101217.00
2022-08-08T20:55:07.690Z,101212.00
2022-08-08T20:57:51.271Z,101219.00
2022-08-08T21:00:19.592Z,101219.00
2022-08-08T21:02:52.548Z,101228.00
2022-08-08T21:05:21.491Z,101234.00
2022-08-08T21:08:34.377Z,101235.00
2022-08-08T21:10:41.066Z,101237.00
2022-08-08T21:13:09.166Z,101233.00
2022-08-08T21:16:05.204Z,101226.00
2022-08-08T21:18:27.922Z,101229.00
2022-08-08T21:20:56.628Z,101226.00
2022-08-08T21:23:58.524Z,101234.00
2022-08-08T21:26:13.278Z,101238.00
2022-08-08T21:28:55.854Z,101233.00
2022-08-08T21:31:58.336Z,101235.00
2022-08-08T21:34:18.575Z,101237.00
2022-08-08T21:36:54.549Z,101238.00
2022-08-08T21:39:41.428Z,101226.00
2022-08-08T21:42:14.407Z,101235.00
2022-08-08T21:44:59.064Z,101249.00
2022-08-08T21:48:05.917Z,101244.00
2022-08-08T21:50:18.292Z,101246.00
2022-08-08T21:54:31.742Z,101243.00
2022-08-08T21:56:20.019Z,101251.00
2022-08-08T21:58:24.819Z,101257.00
2022-08-08T22:01:00.433Z,101260.00
2022-08-08T22:03:32.727Z,101252.00
2022-08-08T22:06:02.264Z,101258.00
2022-08-08T22:08:37.234Z,101260.00
2022-08-08T22:11:58.759Z,101252.00
2022-08-08T22:13:59.145Z,101264.00
2022-08-08T22:16:28.121Z,101255.00
2022-08-08T22:18:56.480Z,101253.00
2022-08-08T22:21:24.544Z,101259.00
2022-08-08T22:24:05.771Z,101250.00
2022-08-08T22:26:34.842Z,101253.00
2022-08-08T22:30:01.001Z,101251.00
2022-08-08T22:32:10.943Z,101261.00
2022-08-08T22:34:40.109Z,101258.00
2022-08-08T22:37:15.065Z,101255.00
2022-08-08T22:40:00.992Z,101266.00
2022-08-08T22:42:34.802Z,101275.00
2022-08-08T22:45:12.770Z,101266.00
2022-08-08T22:47:49.493Z,101270.00
2022-08-08T22:50:25.969Z,101275.00
2022-08-08T22:54:28.321Z,101277.00
2022-08-08T22:55:58.628Z,101277.00
2022-08-08T22:58:30.900Z,101279.00
2022-08-08T23:01:00.029Z,101279.00
2022-08-08T23:03:52.670Z,101291.00
2022-08-08T23:06:18.026Z,101287.00
2022-08-08T23:08:55.964Z,101276.00
2022-08-08T23:11:30.824Z,101284.00
2022-08-08T23:14:21.287Z,101292.00
2022-08-08T23:16:54.904Z,101289.00
2022-08-08T23:19:31.108Z,101301.00
2022-08-08T23:22:05.192Z,101298.00
2022-08-08T23:24:41.181Z,101298.00
2022-08-08T23:27:11.237Z,101292.00
2022-08-08T23:29:59.421Z,101296.00
2022-08-08T23:32:27.421Z,101301.00
2022-08-08T23:34:59.186Z,101295.00
2022-08-08T23:37:54.277Z,101287.00
2022-08-08T23:40:16.846Z,101296.00
2022-08-08T23:42:50.303Z,101296.00
2022-08-08T23:49:00.922Z,101298.00
2022-08-08T23:49:02.100Z,101295.00
2022-08-08T23:50:57.281Z,101292.00
2022-08-08T23:54:05.685Z,101301.00
2022-08-08T23:56:13.532Z,101300.00
2022-08-08T23:58:51.766Z,101300.00
